FNSA

Saurimo Airport

Saurimo, Angola
METAR FNSA 171600Z 00000KT 9999 SCT030 27/20 Q1016
Observed Flight Rules
Nov-17 @ 16:00 UTC (6 hours ago) Visual Flight Rules
Visibility Clouds
10,000+ meters
  • Scattered at 3,000' AGL
Temperatures Readings
Current 27°C / 81°F
Dewpoint 20°C / 68°F
Humidity 66%
Altimeter 30" Hg
Pressure 1016 hPa
Elevation 1093
METAR FNSA 171600Z 00000KT 9999 SCT030 27/20 Q1016
Observed Flight Rules
Nov-17 @ 16:00 UTC
(6 hours ago)
VFR
Clouds
  • Scattered at 3,000' AGL
Temperature Dewpoint
27°C / 81°F 20°C / 68°F
Humidity Altimeter Pressure
66% 30" Hg 1016 hPa